KNMI Weerbulletins

Hier vind u de KMNI verwachtingen en de waarnemingen

Bron: KNMI website
Laatste update op 15-10-2019 om 07:12
ZCZC
FBNL50 EHDB 150214
WEERBULLETIN VOOR DE LUCHTVAART
.
GELDIG 150300/150900 UTC
.
SITUATIE: AAN DE ZUIDOOSTFLANK VAN EEN LAAG BOVEN HET WESTEN VAN DE
NOORDZEE VOERT EEN ZUIDWESTELIJKE STROMING MARITIEM TROPISCHE LUCHT
AAN. EEN NNW-ZZO GEORIENTEERD KOUFRONT BOVEN HET UITERSTE ZUIDWESTEN,
TREKT NOORDOOSTWAARTS EN LIGT AAN HET EINDE VAN DE PERIODE BOVEN HET
ZUIDWESTEN. TEN WESTEN VAN HET KOUFRONT WORDT MET EEN WESTELIJKE
STROMING DROGERE LUCHT AANGEVOERD.
.
SIGNIFICANT WEER: IN HET UITERSTE NOORDEN EEN KLEINE KANS OP NEVEL,
IN DE TWEEDE HELFT VAN DE PERIODE OPLOSSEND. NABIJ HET KOUFRONT
LOKAAL LICHTE, AAN HET EINDE VAN DE PERIODE IN HET ZUIDEN LOKAAL
MATIGE REGEN.
.
WIND: ZUIDELIJK 3-7 KN. BOVEN HET IJSSELMEER EN LANGS DE KUST 12-17
KN, SPOEDIG ENKELE KN AFNEMEND. WEST VAN HET KOUFRONT RUIMEND NAAR
ZUIDWESTELIJK.
.
BEWOLKING: LOKAAL BKN AC 6000-8000 VT, TOPPEN BOVEN FL100. NABIJ HET
KOUFRONT BKN SC 1500-2500 VT, LOKAAL BKN SC 1000-1500 VT, GELAAGD TOT
BOVEN FL100. WEST VAN HET KOUFRONT BKN SC 2000-3000 VT, MOGELIJK
LOKAAL 1000-1500 VT, TOPPEN 5000 VT.
.
ZICHT: MEER DAN 10 KM. IN HET NOORDEN LOKAAL 5-8 KM, IN NEVEL 3-5 KM.
IN NEERSLAG 5-8 KM.
.
NULGRADEN NIVEAU: ROND FL100, WEST VAN HET KOUFRONT DALEND NAAR
FL070-080.
.
HOOGTEWINDEN EN TEMPERATUREN:
       03 UTC:        09 UTC:
0500VT 190-240/20 +18 180-240/10 +13
1500VT 210-250/25 +17 180-250/10 +12
3000VT     220/25 +14 160-210/20 +11
FL 050     210/30 +12 160-230/30 +10
FL 100     180/35 +02 190/35     +00
MEEST GERUIMDE WIND WEST VAN HET KOUFRONT.
.
.
THERMIEK: NIET ONTWIKKELD.
.
MAX. TEMPERATUUR: ROND 16 GRADEN CELSIUS, IN HET OOSTEN LOKAAL 19
GRADEN.
.
VOORUITZICHTEN VOOR DE PERIODE VAN 150900/151500: HET KOUFRONT TREKT
VERDER NOORDOOSTWAARTS EN BLIJFT SLEPEN BOVEN HET OOSTEN MET EEN
TOENEMENDE KANS OP ST. IN HET UITERSTE OOSTEN IS EEN KLEINE KANS OP
EEN INGEBEDDE REGENBUI. IN DE TWEEDE HELFT VAN DE PERIODE IN HET
ZUIDWESTEN KANS OP EEN LICHTE REGENBUI.
.
DAGLICHTPERIODE: 05.49 TOT 17.02 UTC.=
NNNN
Bron: KNMI website
Laatste update op 15-10-2019 om 07:12
ZCZC
FC142100 EHGR     GILZE-RIJEN/GILZE-RIJEN   NLD   14 m.
TAF EHGR 142100Z NIL=
ZCZC
FC142100 EHWO     WOENSDRECHT/WOENSDRECHT   NLD   19 m.
TAF EHWO 142100Z NIL=
ZCZC
FT142300 EHAM     AMSTERDAM/SCHIPHOL   NLD   -3 m.
TAF EHAM 142309Z 1500/1606 15010KT CAVOK
    BECMG 1507/1510 19005KT SCT025 BKN030
    PROB30 1508/1512 5000 -RA SCT012 BKN015
    PROB30 TEMPO 1515/1522 6000 -SHRA SCT020CB BKN040
    BECMG 1601/1604 19010KT
    PROB30 TEMPO 1603/1606 BKN006=
ZCZC
FT142300 EHBK     MAASTRICHT/MAASTRICHT-AACHEN   NLD   114 m.
TAF EHBK 142315Z 1500/1606 19008KT CAVOK
    TEMPO 1507/1521 6000 -RA BKN012
    PROB40 TEMPO 1509/1515 4000 RA BKN009
    BECMG 1519/1522 22010KT
    PROB30 TEMPO 1600/1604 6000 -RADZ=
ZCZC
FT142300 EHRD     ROTTERDAM/THE HAGUE AIRPORT   NLD   -5 m.
TAF EHRD 142309Z 1500/1606 15010KT CAVOK
    BECMG 1507/1510 19005KT SCT025 BKN030
    PROB30 1508/1512 5000 -RA SCT012 BKN015
    PROB30 TEMPO 1515/1522 6000 -SHRA SCT020CB BKN040
    BECMG 1601/1604 19010KT
    PROB30 TEMPO 1603/1606 BKN006=
ZCZC
FT142300 EHEH     EINDHOVEN/EINDHOVEN   NLD   22 m.
TAF EHEH 142311Z 1500/1606 15004KT CAVOK
    BECMG 1501/1504 21006KT
    BECMG 1507/1510 FEW012 SCT018 BKN060
    TEMPO 1508/1520 4500 SHRA RA SCT012 BKN030 BKN050CB
    PROB30 TEMPO 1508/1513 23010G20KT 3000 SHRA TSRA SCT008
    BKN012 BKN050CB=
ZCZC
FT142300 EHGG AAA GRONINGEN/EELDE   NLD   5 m.
TAF AMD EHGG 150213Z 1502/1606 15007KT CAVOK
    PROB30 1503/1507 4000 BR
    TEMPO 1511/1602 6000 -RA BKN012
    PROB40 TEMPO 1514/1602 4000 RA BKN009
    BECMG 1603/1606 21012KT
    PROB30 1603/1606 BKN006=
ZCZC
FC150100 EHKD RRA DE KOOY/DE KOOY   NLD   1 m.
TAF EHKD 150109Z 1501/1513 14006KT CAVOK
    PROB30 TEMPO 1502/1509 SCT012 SCT060CB
    BECMG 1504/1507 21012KT SCT015
    TEMPO 1509/1513 SCT012 SCT060CB
    PROB30 TEMPO 1509/1513 22013G23KT 3000 TSRA SCT008 SCT060CB=
ZCZC
FC150100 EHLW RRB LEEUWARDEN/LEEUWARDEN   NLD   1 m.
TAF EHLW 150108Z 1501/1513 14010KT CAVOK
    PROB30 TEMPO 1503/1510 SCT012 SCT060CB
    BECMG 1504/1507 21006KT SCT015
    TEMPO 1510/1513 SCT012 SCT060CB
    PROB30 TEMPO 1510/1513 22010G20KT 3000 TSRA SCT008 SCT060CB=
ZCZC
FC150100 EHVK RRC VOLKEL/VOLKEL   NLD   21 m.
TAF EHVK 150110Z 1501/1513 17006KT CAVOK
    BECMG 1504/1506 21004KT SCT012
    TEMPO 1508/1513 4500 SHRA RA SCT012 BKN030 BKN050CB
    PROB30 TEMPO 1508/1513 23010G20KT 3000 SHRA TSRA SCT008
    BKN012 BKN050CB=
Bron: KNMI website
Laatste update op 15-10-2019 om 07:12
ZCZC
SA150425 EHFS     VLISSINGEN AWS   NLD   8 m.
METAR EHFS 150425Z AUTO 21011KT 9999 FEW025/// 15/14 Q1004 W///H///=
ZCZC
SA150455 EHKD     DE KOOY/DE KOOY   NLD   1 m.
METAR EHKD 150455Z AUTO 20014KT 9999 FEW140 OVC200 15/13 Q1003
BLU 21013KT 9999 SCT015=
ZCZC
SA150455 EHFD     F3-FB-1   NLD   50 m.
METAR EHFD 150455Z AUTO 18018KT 9000 FEW022/// ///15 Q1000 W///H///=
ZCZC
SA150455 EHAM     AMSTERDAM/SCHIPHOL   NLD   -3 m.
METAR EHAM 150455Z 17008KT 9999 FEW027 15/13 Q1003 NOSIG=
ZCZC
SA150455 EHVL     VLIELAND   NLD   10 m.
METAR EHVL 150455Z AUTO 20017KT 9999 OVC210 14/13 Q1002 BLU=
ZCZC
SA150455 EHJR     K13-A   NLD   37 m.
METAR EHJR 150455Z AUTO 22027KT //// // ///////// 15/12 Q//// RE//
W16/H17=
ZCZC
SA150455 EHLW     LEEUWARDEN/LEEUWARDEN   NLD   1 m.
METAR EHLW 150455Z AUTO 20006KT 9999 OVC160 14/13 Q1003 BLU=
ZCZC
SA150455 EHDL     ARNHEM/DEELEN   NLD   48 m.
METAR EHDL 150455Z AUTO 21005KT 150V240 9999 BKN210 BKN310 15/13
Q1005 BLU=
ZCZC
SA150455 EHGG     GRONINGEN/EELDE   NLD   5 m.
METAR EHGG 150455Z AUTO 20005KT 9999 NSC 14/12 Q1004 NOSIG=
ZCZC
SA150455 EHSC     LICHTEILAND GOEREE   NLD   22 m.
METAR EHSC 150455Z AUTO 21020KT 9999 ///////// 15/14 Q1003 W15/H10=
ZCZC
SA150455 EHSA     EURO PLATFORM   NLD   19 m.
METAR EHSA 150455Z AUTO 19021KT 9999 ///////// 16/14 Q1003 W14/H12=
ZCZC
SA150455 EHWO     WOENSDRECHT/WOENSDRECHT   NLD   19 m.
METAR EHWO 150455Z AUTO 21006KT 170V240 9999 -RA FEW073 BKN095 OVC100
15/13 Q1004 BLU=
ZCZC
SA150455 EHRD     ROTTERDAM/THE HAGUE AIRPORT   NLD   -5 m.
METAR EHRD 150455Z AUTO 22011KT 180V250 9999 FEW016 SCT020 15/13
Q1003 NOSIG=
ZCZC
SA150455 EHGR     GILZE-RIJEN/GILZE-RIJEN   NLD   14 m.
METAR EHGR 150455Z AUTO 19004KT 170V230 9999 BKN017 OVC020 15/13
Q1004 WHT=
ZCZC
SA150455 EHEH     EINDHOVEN/EINDHOVEN   NLD   22 m.
METAR EHEH 150455Z AUTO 17005KT 9999 OVC130 14/13 Q1005
BLU 17005KT CAVOK=
ZCZC
SA150455 EHVK     VOLKEL/VOLKEL   NLD   21 m.
METAR EHVK 150455Z AUTO 23003KT 9999 OVC120 14/12 Q1005 BLU=
ZCZC
SA150455 EHBK     MAASTRICHT/MAASTRICHT-AACHEN   NLD   114 m.
METAR EHBK 150455Z AUTO 23005KT 200V260 9999 NSC 15/12 Q1005 NOSIG=
ZCZC
SA150455 EHFZ     F16-A   NLD   43 m.
METAR EHFZ 150455Z AUTO 19028KT 9999 FEW016 16/14 Q1000 W///H///=
ZCZC
SA150455 EHKV     K14-FA-1C   NLD   41 m.
METAR EHKV 150455Z AUTO 19025KT 9999 FEW009 SCT013 BKN016 16/14 Q1001
W///H///=
ZCZC
SA150455 EHMG     L9-FF-1   NLD   44 m.
METAR EHMG 150455Z AUTO 21030KT 9999 NSC 16/14 Q1003 W///H///=
ZCZC
SA150455 EHMA     AWG-1   NLD   40 m.
METAR EHMA 150455Z AUTO 16013KT 9999 NCD 15/14 Q1003 W///H///=
ZCZC
SA150455 EHDV     D15-FA-1   NLD   42 m.
METAR EHDV 150455Z AUTO 17020KT 9999 FEW008/// OVC021/// 15/14 Q0999
W///H///=
ZCZC
SA150455 EHAK     A12-CPP   NLD   48 m.
METAR EHAK 150455Z AUTO 16023KT 9000 FEW005/// SCT010/// BKN013///
15/15 Q0999 W///H///=
ZCZC
SA150455 EHQE     HOORN-A   NLD   50 m.
METAR EHQE 150455Z AUTO 16027KT 9999 ////// 16/14 Q1002 W///H///=
ZCZC
SA150455 EHJA     J6-A   NLD   45 m.
METAR EHJA 150455Z AUTO 19019KT 9999 FEW011/// BKN019/// OVC023///
15/13 Q1000 W///H///=
ZCZC
SA150455 EHPG     P11-B   NLD   41 m.
METAR EHPG 150455Z AUTO /////KT 9999 FEW010 16/14 Q1002 W///H///=
ZCZC
SA150455 EHHW     BUITENGAATS/BG-OHVS2      42 m.
METAR EHHW 150455Z AUTO 21019KT 9999 NSC 16/14 Q1003 W///H///=